Time;durP1;ratioP1;P1;durP2;ratioP2;P2;SDS_P1;SDS_P2;PMS_P1;PMS_P2;Temp;Humidity;BMP_temperature;BMP_pressure;BME280_temperature;BME280_humidity;BME280_pressure;Samples;Min_cycle;Max_cycle;Signal;HPM_P1;HPM_P2
2021/08/31 00:02:05;;;;;;;20.30;15.88;;;15.20;99.90;;;;;;4914992;29;20050;-73
2021/08/31 00:04:30;;;;;;;24.67;15.27;;;15.20;99.90;;;;;;4939484;28;20020;-73
2021/08/31 00:06:56;;;;;;;20.73;16.58;;;15.20;99.90;;;;;;4915139;29;20035;-72
2021/08/31 00:09:21;;;;;;;18.40;15.10;;;15.20;99.90;;;;;;4919200;29;20083;-72
2021/08/31 00:11:47;;;;;;;18.38;16.40;;;15.10;99.90;;;;;;4919870;29;20035;-72
2021/08/31 00:14:13;;;;;;;18.58;15.85;;;15.20;99.90;;;;;;4937504;29;20244;-72
2021/08/31 00:16:40;;;;;;;18.75;15.57;;;15.10;99.90;;;;;;4938257;29;20468;-73
2021/08/31 00:19:06;;;;;;;18.85;15.82;;;15.10;99.90;;;;;;4936437;29;20066;-73
2021/08/31 00:21:32;;;;;;;20.70;16.58;;;15.10;99.90;;;;;;4917240;29;20020;-73
2021/08/31 00:23:57;;;;;;;19.15;15.27;;;15.10;99.90;;;;;;4918438;29;20042;-73
2021/08/31 00:26:23;;;;;;;17.92;15.45;;;15.10;99.90;;;;;;4917726;29;20020;-74
2021/08/31 00:28:48;;;;;;;17.90;15.45;;;15.00;99.90;;;;;;4918081;29;20036;-73
2021/08/31 00:31:14;;;;;;;21.10;16.27;;;15.00;99.90;;;;;;4918777;29;20024;-72
2021/08/31 00:33:39;;;;;;;20.38;15.13;;;15.00;99.90;;;;;;4918756;29;20043;-72
2021/08/31 00:36:05;;;;;;;18.33;15.10;;;15.00;99.90;;;;;;4917958;29;20032;-73
2021/08/31 00:38:31;;;;;;;18.52;16.60;;;14.90;99.90;;;;;;4918586;29;20060;-73
2021/08/31 00:40:58;;;;;;;19.15;15.75;;;14.90;99.90;;;;;;4917892;29;20103;-73
2021/08/31 00:43:24;;;;;;;21.15;17.05;;;14.90;99.90;;;;;;4917784;29;20039;-72
2021/08/31 00:45:50;;;;;;;17.20;14.68;;;14.90;99.90;;;;;;4917098;29;20024;-73
2021/08/31 00:48:17;;;;;;;19.42;15.75;;;14.90;99.90;;;;;;4918569;29;20028;-73
2021/08/31 00:50:44;;;;;;;19.67;17.08;;;14.90;99.90;;;;;;4917614;29;20438;-73
2021/08/31 00:53:10;;;;;;;17.33;14.30;;;14.90;99.90;;;;;;4917137;29;20051;-74
2021/08/31 00:55:36;;;;;;;17.83;15.45;;;14.90;99.90;;;;;;4917784;29;20279;-73
2021/08/31 00:58:02;;;;;;;18.13;15.35;;;14.90;99.90;;;;;;4918061;29;20028;-73
2021/08/31 01:00:28;;;;;;;21.42;17.20;;;14.80;99.90;;;;;;4917171;29;20028;-73
2021/08/31 01:02:55;;;;;;;19.58;16.00;;;14.80;99.90;;;;;;4915904;29;20036;-73
2021/08/31 01:05:21;;;;;;;21.30;17.48;;;14.80;99.90;;;;;;4918416;29;20032;-73
2021/08/31 01:07:47;;;;;;;18.10;16.08;;;14.90;99.90;;;;;;4917973;29;20087;-73
2021/08/31 01:10:14;;;;;;;21.63;17.17;;;14.80;99.90;;;;;;4917531;29;20035;-72
2021/08/31 01:12:40;;;;;;;20.42;16.50;;;14.90;99.90;;;;;;4918332;29;20028;-73
2021/08/31 01:15:06;;;;;;;19.15;15.73;;;14.80;99.90;;;;;;4917301;29;20024;-73
2021/08/31 01:17:32;;;;;;;23.60;16.27;;;14.80;99.90;;;;;;4916130;29;20469;-73
2021/08/31 01:19:58;;;;;;;19.65;16.48;;;14.90;99.90;;;;;;4917736;29;20110;-73
2021/08/31 01:22:24;;;;;;;21.27;17.40;;;14.90;99.90;;;;;;4916618;29;20084;-73
2021/08/31 01:25:04;;;;;;;17.38;15.07;;;14.90;99.90;;;;;;4917040;29;20028;-73
2021/08/31 01:27:30;;;;;;;17.85;15.15;;;15.00;99.90;;;;;;4917802;29;20397;-73
2021/08/31 01:29:56;;;;;;;17.67;14.52;;;14.90;99.90;;;;;;4916263;29;20067;-73
2021/08/31 01:32:22;;;;;;;16.50;14.75;;;14.90;99.90;;;;;;4917096;29;20035;-73
2021/08/31 01:34:48;;;;;;;16.60;13.75;;;14.90;99.90;;;;;;4917550;29;20024;-73
2021/08/31 01:37:13;;;;;;;15.35;13.73;;;14.90;99.90;;;;;;4917629;29;20520;-73
2021/08/31 01:39:40;;;;;;;21.55;15.02;;;14.90;99.90;;;;;;4917049;29;20036;-73
2021/08/31 01:42:06;;;;;;;28.40;14.27;;;14.90;99.90;;;;;;4916033;29;20063;-73
2021/08/31 01:44:32;;;;;;;16.23;14.18;;;14.90;99.90;;;;;;4917569;29;20032;-73
2021/08/31 01:46:58;;;;;;;16.90;14.20;;;14.90;99.90;;;;;;4916533;29;20443;-73
2021/08/31 01:49:23;;;;;;;18.55;14.75;;;14.90;99.90;;;;;;4917595;29;20103;-73
2021/08/31 01:51:49;;;;;;;16.83;15.05;;;14.90;99.90;;;;;;4916557;29;20107;-72
2021/08/31 01:54:15;;;;;;;19.85;14.95;;;14.80;99.90;;;;;;4916045;29;20048;-72
2021/08/31 01:56:40;;;;;;;16.90;14.15;;;14.80;99.90;;;;;;4917297;29;20377;-73
2021/08/31 01:59:09;;;;;;;19.83;14.45;;;14.80;99.90;;;;;;4915323;29;20021;-72
2021/08/31 02:01:38;;;;;;;15.88;14.13;;;14.80;99.90;;;;;;4917211;29;20429;-72
2021/08/31 02:04:04;;;;;;;18.08;15.07;;;14.80;99.90;;;;;;4915474;29;20127;-72
2021/08/31 02:06:30;;;;;;;20.45;14.68;;;14.80;99.90;;;;;;4916559;29;20039;-72
2021/08/31 02:08:55;;;;;;;21.80;15.98;;;14.80;99.90;;;;;;4915587;29;20024;-72
2021/08/31 02:11:21;;;;;;;17.50;14.15;;;14.70;99.90;;;;;;4915685;29;20035;-72
2021/08/31 02:13:46;;;;;;;19.35;14.68;;;14.70;99.90;;;;;;4916064;29;20016;-72
2021/08/31 02:16:12;;;;;;;19.83;13.40;;;14.70;99.90;;;;;;4915667;29;20454;-72
2021/08/31 02:18:39;;;;;;;19.10;13.52;;;14.70;99.90;;;;;;4917060;29;20032;-72
2021/08/31 02:21:06;;;;;;;18.63;13.07;;;14.70;99.90;;;;;;4915940;29;20052;-73
2021/08/31 02:23:32;;;;;;;16.55;13.88;;;14.70;99.90;;;;;;4916604;29;20036;-72
2021/08/31 02:25:58;;;;;;;14.93;13.00;;;14.70;99.90;;;;;;4916556;29;20024;-73
2021/08/31 02:28:23;;;;;;;16.40;12.20;;;14.70;99.90;;;;;;4914800;29;20028;-72
2021/08/31 02:30:49;;;;;;;18.80;15.10;;;14.70;99.90;;;;;;4916571;29;20036;-73
2021/08/31 02:33:14;;;;;;;17.63;13.57;;;14.70;99.90;;;;;;4916593;29;20028;-72
2021/08/31 02:35:40;;;;;;;21.75;14.10;;;14.70;99.90;;;;;;4914817;29;20020;-73
2021/08/31 02:38:06;;;;;;;15.32;12.57;;;14.70;99.90;;;;;;4917032;29;20074;-72
2021/08/31 02:40:31;;;;;;;15.20;12.18;;;14.70;99.90;;;;;;4916832;29;20046;-73
2021/08/31 02:42:57;;;;;;;18.60;13.85;;;14.70;99.90;;;;;;4915328;29;20100;-73
2021/08/31 02:45:22;;;;;;;15.30;12.70;;;14.70;99.90;;;;;;4917062;29;20020;-72
2021/08/31 02:47:48;;;;;;;19.23;13.73;;;14.80;99.90;;;;;;4915008;29;20024;-72
2021/08/31 02:50:13;;;;;;;18.33;12.55;;;14.80;99.90;;;;;;4915780;29;20036;-72
2021/08/31 02:52:39;;;;;;;20.48;12.75;;;14.70;99.90;;;;;;4915137;29;20062;-72
2021/08/31 02:55:05;;;;;;;14.75;12.05;;;14.70;99.90;;;;;;4915672;29;20028;-72
2021/08/31 02:57:31;;;;;;;21.00;12.65;;;14.70;99.90;;;;;;4916477;29;20043;-72
2021/08/31 02:59:57;;;;;;;16.60;11.52;;;14.70;99.90;;;;;;4916200;29;20020;-73
2021/08/31 03:02:22;;;;;;;18.02;12.65;;;14.70;99.90;;;;;;4915660;29;20096;-72
2021/08/31 03:04:48;;;;;;;21.98;14.00;;;14.60;99.90;;;;;;4914257;29;20176;-73
2021/08/31 03:07:15;;;;;;;17.05;11.95;;;14.60;99.90;;;;;;4914933;29;20537;-73
2021/08/31 03:09:41;;;;;;;15.98;11.57;;;14.60;99.90;;;;;;4930034;29;20032;-73
2021/08/31 03:12:07;;;;;;;15.85;11.85;;;14.70;99.90;;;;;;4916230;29;20055;-73
2021/08/31 03:14:33;;;;;;;14.60;11.05;;;14.60;99.90;;;;;;4915414;29;20024;-73
2021/08/31 03:16:59;;;;;;;19.27;12.35;;;14.70;99.90;;;;;;4915366;29;20027;-73
2021/08/31 03:19:25;;;;;;;20.38;12.20;;;14.70;99.90;;;;;;4916264;29;20028;-73
2021/08/31 03:21:54;;;;;;;18.10;13.68;;;14.70;99.90;;;;;;4917913;29;20392;-73
2021/08/31 03:24:20;;;;;;;20.35;12.73;;;14.70;99.90;;;;;;4913018;29;20119;-73
2021/08/31 03:26:46;;;;;;;16.65;11.80;;;14.80;99.90;;;;;;4924653;29;20080;-73
2021/08/31 03:29:11;;;;;;;16.17;12.38;;;14.80;99.90;;;;;;4912240;29;20044;-72
2021/08/31 03:31:37;;;;;;;18.27;13.25;;;14.90;99.90;;;;;;4934555;29;20095;-72
2021/08/31 03:34:03;;;;;;;18.65;13.38;;;15.00;99.90;;;;;;4927974;29;20031;-72
2021/08/31 03:36:28;;;;;;;21.35;13.05;;;15.00;99.90;;;;;;4914869;29;20048;-73
2021/08/31 03:38:54;;;;;;;18.15;13.35;;;15.00;99.90;;;;;;4914755;29;20059;-73
2021/08/31 03:41:19;;;;;;;23.40;12.85;;;15.00;99.90;;;;;;4919541;29;20051;-72
2021/08/31 03:43:46;;;;;;;17.67;13.77;;;15.00;99.90;;;;;;4919393;29;20036;-72
2021/08/31 03:46:12;;;;;;;17.27;12.63;;;15.00;99.90;;;;;;4930130;29;20035;-73
2021/08/31 03:48:37;;;;;;;21.08;13.75;;;15.00;99.90;;;;;;4927897;29;20031;-74
2021/08/31 03:51:04;;;;;;;22.00;13.00;;;15.00;99.90;;;;;;4925300;29;20040;-74
2021/08/31 03:53:29;;;;;;;19.95;12.68;;;15.00;99.90;;;;;;4917569;29;20027;-72
2021/08/31 03:55:55;;;;;;;20.67;10.85;;;15.00;99.90;;;;;;4919079;29;20028;-74
2021/08/31 03:58:20;;;;;;;23.60;11.90;;;15.10;99.90;;;;;;4918189;29;20111;-74
2021/08/31 04:00:46;;;;;;;19.30;12.98;;;15.20;99.90;;;;;;4918688;29;20095;-73
2021/08/31 04:03:12;;;;;;;16.80;11.63;;;15.20;99.90;;;;;;4919185;29;20106;-73
2021/08/31 04:05:37;;;;;;;17.13;12.80;;;15.30;99.90;;;;;;4917040;29;20036;-71
2021/08/31 04:08:03;;;;;;;19.77;12.30;;;15.40;99.90;;;;;;4919012;29;20024;-74
2021/08/31 04:10:28;;;;;;;20.90;11.15;;;15.40;99.90;;;;;;4917843;29;20118;-73
2021/08/31 04:12:54;;;;;;;16.17;11.68;;;15.50;99.90;;;;;;4918017;29;20055;-73
2021/08/31 04:15:20;;;;;;;14.50;9.93;;;15.50;99.90;;;;;;4919357;29;20028;-73
2021/08/31 04:17:45;;;;;;;14.77;9.63;;;15.50;99.90;;;;;;4917643;29;20400;-73
2021/08/31 04:20:11;;;;;;;15.50;9.90;;;15.60;99.90;;;;;;4918437;29;20107;-73
2021/08/31 04:22:37;;;;;;;15.13;10.55;;;15.50;99.90;;;;;;4918856;29;20040;-73
2021/08/31 04:25:03;;;;;;;15.00;9.38;;;15.50;99.90;;;;;;4917441;29;20028;-73
2021/08/31 04:27:29;;;;;;;18.73;8.75;;;15.60;99.90;;;;;;4916573;29;20024;-72
2021/08/31 04:29:55;;;;;;;17.60;9.57;;;15.60;99.90;;;;;;4918785;29;20384;-73
2021/08/31 04:32:20;;;;;;;11.82;8.98;;;15.60;99.90;;;;;;4918861;29;20564;-73
2021/08/31 04:34:47;;;;;;;21.85;9.15;;;15.60;99.90;;;;;;4917960;29;20080;-73
2021/08/31 04:37:12;;;;;;;16.50;8.75;;;15.60;99.90;;;;;;4918723;29;20389;-73
2021/08/31 04:39:38;;;;;;;15.27;8.50;;;15.70;99.90;;;;;;4918817;29;20032;-73
2021/08/31 04:42:05;;;;;;;11.57;7.45;;;15.70;99.90;;;;;;4916056;29;20052;-73
2021/08/31 04:44:31;;;;;;;14.45;7.45;;;15.70;99.90;;;;;;4918722;29;20036;-72
2021/08/31 04:46:57;;;;;;;17.90;8.23;;;15.80;99.90;;;;;;4916941;29;20016;-73
2021/08/31 04:49:22;;;;;;;11.35;7.30;;;15.80;99.90;;;;;;4916754;29;20436;-72
2021/08/31 04:51:48;;;;;;;13.95;7.18;;;15.80;99.90;;;;;;4918293;29;20024;-72
2021/08/31 04:54:14;;;;;;;16.88;7.38;;;15.80;99.90;;;;;;4918480;29;20032;-72
2021/08/31 04:56:39;;;;;;;17.02;8.32;;;15.80;99.90;;;;;;4916300;29;20020;-72
2021/08/31 04:59:05;;;;;;;15.95;7.50;;;15.80;99.90;;;;;;4916675;29;20040;-72
2021/08/31 05:01:30;;;;;;;13.77;7.40;;;15.80;99.90;;;;;;4918414;29;20028;-73
2021/08/31 05:03:56;;;;;;;14.68;7.18;;;15.80;99.90;;;;;;4916127;29;20384;-73
2021/08/31 05:06:21;;;;;;;8.10;5.57;;;15.80;99.90;;;;;;4918332;29;20461;-73
2021/08/31 05:08:47;;;;;;;12.38;6.30;;;15.90;99.90;;;;;;4916035;29;20028;-73
2021/08/31 05:11:12;;;;;;;13.02;6.95;;;15.90;99.90;;;;;;4918156;29;20032;-73
2021/08/31 05:13:41;;;;;;;11.50;6.80;;;16.00;99.90;;;;;;4917963;29;20040;-73
2021/08/31 05:16:13;;;;;;;11.52;7.20;;;16.00;99.90;;;;;;4917467;29;20059;-73
2021/08/31 05:18:38;;;;;;;13.13;6.80;;;16.10;99.90;;;;;;4918166;29;20032;-73
2021/08/31 05:21:05;;;;;;;12.20;6.13;;;16.10;99.90;;;;;;4917618;29;20039;-74
2021/08/31 05:23:32;;;;;;;12.52;6.78;;;16.10;99.90;;;;;;4916662;29;20515;-73
2021/08/31 05:25:57;;;;;;;14.40;7.40;;;16.20;99.90;;;;;;4917541;29;20036;-73
2021/08/31 05:28:23;;;;;;;15.80;7.18;;;16.20;99.90;;;;;;4916609;29;20028;-75
2021/08/31 05:30:48;;;;;;;17.08;7.47;;;16.20;99.90;;;;;;4916700;29;20024;-74
2021/08/31 05:33:14;;;;;;;12.73;6.78;;;16.20;99.90;;;;;;4917648;29;20155;-74
2021/08/31 05:35:40;;;;;;;13.13;6.38;;;16.20;99.90;;;;;;4918122;29;20110;-74
2021/08/31 05:38:05;;;;;;;12.48;6.70;;;16.30;99.90;;;;;;4917081;29;20028;-75
2021/08/31 05:40:31;;;;;;;10.68;6.18;;;16.30;99.90;;;;;;4920871;29;20032;-74
2021/08/31 05:42:56;;;;;;;13.38;6.85;;;16.30;99.90;;;;;;4927298;29;20055;-74
2021/08/31 05:45:22;;;;;;;13.65;7.10;;;16.40;99.90;;;;;;4898367;29;20036;-75
2021/08/31 05:47:48;;;;;;;15.52;6.45;;;16.40;99.90;;;;;;4916630;29;20035;-74
2021/08/31 05:50:13;;;;;;;12.18;6.50;;;16.40;99.90;;;;;;4921634;29;20038;-73
2021/08/31 05:52:39;;;;;;;13.27;6.22;;;16.40;99.90;;;;;;4914885;29;20080;-73
2021/08/31 05:55:05;;;;;;;23.08;7.55;;;16.50;99.90;;;;;;4898092;29;20134;-73
2021/08/31 05:57:31;;;;;;;14.73;6.85;;;16.50;99.90;;;;;;4898527;29;20035;-74
2021/08/31 05:59:56;;;;;;;11.85;6.18;;;16.60;99.90;;;;;;4911322;29;20016;-74
2021/08/31 06:02:22;;;;;;;14.48;6.38;;;16.60;99.90;;;;;;4921194;29;20040;-74
2021/08/31 06:04:47;;;;;;;10.15;6.32;;;16.70;99.90;;;;;;4920020;29;20126;-74
2021/08/31 06:07:13;;;;;;;12.80;6.68;;;16.70;99.90;;;;;;4931055;29;20815;-73
2021/08/31 06:09:41;;;;;;;12.35;6.70;;;16.80;99.90;;;;;;4915822;29;20024;-73
2021/08/31 06:12:11;;;;;;;10.18;6.25;;;16.80;99.90;;;;;;4915016;29;20032;-73
2021/08/31 06:14:38;;;;;;;18.10;8.25;;;16.90;99.90;;;;;;4915786;29;20028;-73
2021/08/31 06:17:04;;;;;;;16.02;7.20;;;17.00;99.90;;;;;;4916610;29;20103;-75
2021/08/31 06:19:30;;;;;;;14.90;7.30;;;17.00;99.90;;;;;;4916037;29;20107;-76
2021/08/31 06:21:56;;;;;;;14.98;6.50;;;17.10;99.90;;;;;;4915051;29;20110;-74
2021/08/31 06:24:21;;;;;;;13.82;5.82;;;17.10;99.90;;;;;;4915686;29;20032;-74
2021/08/31 06:26:47;;;;;;;17.20;6.15;;;17.10;99.90;;;;;;4915968;29;20035;-71
2021/08/31 06:29:12;;;;;;;12.30;6.00;;;17.20;99.90;;;;;;4912200;29;20051;-73
2021/08/31 06:31:38;;;;;;;13.77;6.50;;;17.10;99.90;;;;;;4913714;29;20020;-73
2021/08/31 06:34:04;;;;;;;14.15;7.00;;;17.00;99.90;;;;;;4914157;29;20024;-71
2021/08/31 06:36:29;;;;;;;10.40;5.97;;;17.00;99.90;;;;;;4916563;29;20028;-72
2021/08/31 06:38:55;;;;;;;12.73;6.38;;;17.00;99.90;;;;;;4914686;29;20032;-71
2021/08/31 06:41:21;;;;;;;15.00;6.93;;;17.00;99.90;;;;;;4929732;29;20055;-72
2021/08/31 06:43:47;;;;;;;13.15;6.47;;;17.10;99.90;;;;;;4914702;29;20560;-70
2021/08/31 06:46:15;;;;;;;14.30;7.13;;;17.20;99.90;;;;;;4916081;29;20039;-72
2021/08/31 06:48:43;;;;;;;14.43;6.95;;;17.20;99.90;;;;;;4913669;29;20032;-72
2021/08/31 06:51:09;;;;;;;14.98;7.55;;;17.30;99.90;;;;;;4916082;29;20381;-76
2021/08/31 06:53:35;;;;;;;16.00;6.60;;;17.30;99.90;;;;;;4914798;29;20020;-78
2021/08/31 06:56:01;;;;;;;11.82;6.55;;;17.50;99.90;;;;;;4913858;29;20232;-78
2021/08/31 06:58:26;;;;;;;14.80;6.93;;;17.60;99.90;;;;;;4915188;29;20059;-70
2021/08/31 07:00:52;;;;;;;14.77;7.30;;;17.70;99.90;;;;;;4915329;29;20031;-72
2021/08/31 07:03:18;;;;;;;15.70;6.50;;;17.80;99.90;;;;;;4915182;29;20036;-73
2021/08/31 07:05:43;;;;;;;14.75;7.10;;;17.90;99.90;;;;;;4915777;29;20043;-73
2021/08/31 07:08:09;;;;;;;12.48;6.63;;;18.00;99.90;;;;;;4915424;29;20026;-73
2021/08/31 07:10:35;;;;;;;15.93;7.35;;;18.00;99.90;;;;;;4913543;29;20030;-73
2021/08/31 07:13:00;;;;;;;14.15;6.32;;;18.10;99.90;;;;;;4915250;29;20032;-72
2021/08/31 07:15:26;;;;;;;12.65;6.80;;;18.20;99.90;;;;;;4918673;29;20030;-73
2021/08/31 07:17:51;;;;;;;15.65;6.72;;;18.20;99.90;;;;;;4919746;29;20028;-71
2021/08/31 07:20:17;;;;;;;14.55;6.70;;;18.20;99.90;;;;;;4919884;29;20043;-76
2021/08/31 07:22:43;;;;;;;10.50;5.68;;;18.30;99.90;;;;;;4919032;29;20393;-75
2021/08/31 07:25:09;;;;;;;9.85;5.38;;;18.30;99.90;;;;;;4919131;29;20039;-77
2021/08/31 07:27:34;;;;;;;13.05;6.63;;;18.40;99.90;;;;;;4918481;29;20111;-74
2021/08/31 07:30:00;;;;;;;14.48;6.65;;;18.40;99.90;;;;;;4917465;29;20738;-76
2021/08/31 07:32:25;;;;;;;12.23;5.57;;;18.50;99.90;;;;;;4918786;29;20043;-76
2021/08/31 07:34:51;;;;;;;15.90;6.90;;;18.60;99.90;;;;;;4918761;29;20094;-73
2021/08/31 07:37:17;;;;;;;18.67;6.32;;;18.70;99.90;;;;;;4917931;29;20028;-74
2021/08/31 07:39:43;;;;;;;10.25;5.95;;;18.70;99.90;;;;;;4917311;29;20024;-74
2021/08/31 07:42:10;;;;;;;12.20;6.30;;;18.80;99.90;;;;;;4917213;29;20076;-72
2021/08/31 07:44:35;;;;;;;11.38;6.28;;;18.70;99.90;;;;;;4918110;29;20060;-73
2021/08/31 07:47:01;;;;;;;14.57;5.95;;;18.80;99.90;;;;;;4917041;29;20119;-73
2021/08/31 07:49:26;;;;;;;11.55;6.00;;;18.80;99.90;;;;;;4918360;29;20028;-72
2021/08/31 07:51:52;;;;;;;9.20;5.88;;;18.90;99.90;;;;;;4917449;29;20057;-73
2021/08/31 07:54:18;;;;;;;12.73;6.22;;;18.90;99.90;;;;;;4917860;29;20028;-74
2021/08/31 07:56:44;;;;;;;12.68;6.10;;;18.90;99.90;;;;;;4918993;29;20028;-74
2021/08/31 07:59:09;;;;;;;10.02;6.10;;;18.90;99.90;;;;;;4918154;29;20028;-74
2021/08/31 08:01:35;;;;;;;12.07;6.80;;;19.00;99.90;;;;;;4917323;29;20533;-72
2021/08/31 08:04:01;;;;;;;12.40;5.90;;;19.00;99.90;;;;;;4918318;29;20051;-72
2021/08/31 08:06:26;;;;;;;9.43;5.25;;;19.10;99.90;;;;;;4917726;29;20027;-73
2021/08/31 08:08:52;;;;;;;12.90;6.50;;;19.20;99.90;;;;;;4918671;29;20035;-72
2021/08/31 08:11:18;;;;;;;14.43;6.22;;;19.30;99.90;;;;;;4918612;29;20099;-73
2021/08/31 08:13:44;;;;;;;12.90;6.10;;;19.30;99.90;;;;;;4917782;29;20381;-72
2021/08/31 08:16:09;;;;;;;8.93;5.10;;;19.40;99.90;;;;;;4918769;29;20477;-73
2021/08/31 08:18:35;;;;;;;8.70;6.30;;;19.40;99.90;;;;;;4918769;29;20465;-73
2021/08/31 08:21:01;;;;;;;8.80;5.55;;;19.40;99.90;;;;;;4925195;29;20032;-74
2021/08/31 08:23:27;;;;;;;8.32;5.20;;;19.40;99.90;;;;;;4918183;29;20512;-74
2021/08/31 08:25:53;;;;;;;10.77;5.93;;;19.30;99.90;;;;;;4916366;29;20401;-73
2021/08/31 08:28:23;;;;;;;9.90;5.43;;;19.10;99.90;;;;;;4918398;29;20035;-73
2021/08/31 08:30:50;;;;;;;7.45;4.80;;;19.20;99.90;;;;;;4917578;29;20035;-77
2021/08/31 08:33:16;;;;;;;7.88;4.72;;;19.30;99.90;;;;;;4917516;29;20028;-75
2021/08/31 08:35:41;;;;;;;8.65;4.88;;;19.50;99.90;;;;;;4917055;29;20404;-71
2021/08/31 08:38:07;;;;;;;8.77;4.85;;;19.60;99.90;;;;;;4917759;29;20024;-73
2021/08/31 08:40:35;;;;;;;10.13;5.50;;;19.70;99.90;;;;;;4916861;29;20032;-73
2021/08/31 08:43:03;;;;;;;11.88;5.30;;;19.80;99.90;;;;;;4917205;29;20048;-74
2021/08/31 08:45:28;;;;;;;10.35;4.65;;;19.90;99.90;;;;;;4918423;29;20027;-72
2021/08/31 08:47:58;;;;;;;10.95;5.43;;;19.90;99.90;;;;;;4916785;29;20028;-75
2021/08/31 08:50:24;;;;;;;7.75;4.93;;;19.90;99.90;;;;;;4916836;29;20028;-73
2021/08/31 08:52:49;;;;;;;6.95;4.40;;;19.90;99.90;;;;;;4917202;29;20031;-74
2021/08/31 08:55:15;;;;;;;8.52;4.50;;;20.10;99.90;;;;;;4917061;29;20028;-73
2021/08/31 08:57:41;;;;;;;9.80;4.78;;;20.20;99.90;;;;;;4917700;29;20024;-73
2021/08/31 09:00:09;;;;;;;6.07;4.68;;;20.20;99.90;;;;;;4915995;29;20091;-71
2021/08/31 09:02:38;;;;;;;7.30;4.53;;;20.20;99.90;;;;;;4916729;29;20024;-72
2021/08/31 09:05:09;;;;;;;7.53;4.63;;;20.20;99.90;;;;;;4917636;29;20111;-73
2021/08/31 09:07:37;;;;;;;8.82;4.75;;;20.30;99.90;;;;;;4916985;29;20385;-73
2021/08/31 09:10:20;;;;;;;10.23;4.65;;;20.50;99.90;;;;;;4915848;29;20504;-71
2021/08/31 09:12:51;;;;;;;6.45;4.13;;;20.50;99.90;;;;;;4915145;29;20071;-74
2021/08/31 09:15:21;;;;;;;6.65;4.25;;;20.60;99.90;;;;;;4914780;29;20020;-73
2021/08/31 09:18:11;;;;;;;10.40;5.50;;;20.50;99.90;;;;;;4916911;29;20039;-72
2021/08/31 09:21:09;;;;;;;8.43;4.97;;;20.30;99.90;;;;;;4917808;29;20140;-76
2021/08/31 09:23:35;;;;;;;8.23;4.80;;;20.20;99.90;;;;;;4924498;29;20051;-74
2021/08/31 09:26:12;;;;;;;9.45;4.75;;;20.10;99.90;;;;;;4916110;29;20032;-72
2021/08/31 09:28:39;;;;;;;10.40;5.07;;;20.30;99.90;;;;;;4917640;29;20380;-72
2021/08/31 09:31:20;;;;;;;8.18;4.75;;;20.40;99.90;;;;;;4917400;29;20028;-72
2021/08/31 09:33:50;;;;;;;7.65;4.70;;;20.20;99.90;;;;;;4916790;29;20024;-72
2021/08/31 09:36:20;;;;;;;5.57;4.25;;;19.90;99.90;;;;;;4913844;29;20017;-73
2021/08/31 09:39:02;;;;;;;8.50;4.80;;;19.70;99.90;;;;;;4915297;29;20495;-72
2021/08/31 09:41:38;;;;;;;7.47;4.22;;;19.70;99.90;;;;;;4911614;29;20059;-73
2021/08/31 09:44:21;;;;;;;6.80;5.13;;;19.70;99.90;;;;;;4930690;29;20131;-71
2021/08/31 09:46:47;;;;;;;7.32;4.65;;;19.70;99.90;;;;;;4915408;29;20354;-73
2021/08/31 09:49:46;;;;;;;9.40;4.40;;;19.70;99.90;;;;;;4915213;29;20544;-76
2021/08/31 09:52:16;;;;;;;9.70;5.00;;;19.80;99.90;;;;;;4885801;29;20040;-75
2021/08/31 09:54:44;;;;;;;6.85;4.85;;;19.80;99.90;;;;;;4916440;29;20032;-73
2021/08/31 09:57:23;;;;;;;7.78;4.68;;;20.00;99.90;;;;;;4915949;29;20077;-72
2021/08/31 09:59:49;;;;;;;6.85;4.20;;;20.30;99.90;;;;;;4915343;29;20024;-79
2021/08/31 10:02:15;;;;;;;6.10;4.40;;;20.50;99.90;;;;;;4915356;29;20047;-73
2021/08/31 10:04:40;;;;;;;12.90;4.93;;;20.70;99.90;;;;;;4915598;29;20020;-73
2021/08/31 10:07:07;;;;;;;7.70;4.82;;;20.70;99.90;;;;;;4931559;29;20028;-74
2021/08/31 15:19:07;;;;;;;11.85;4.57;;;21.70;99.90;;;;;;5144602;23;20074;-71
2021/08/31 15:21:37;;;;;;;8.57;4.47;;;21.50;99.90;;;;;;4937507;28;20032;-69
2021/08/31 15:24:04;;;;;;;11.05;4.55;;;21.50;99.90;;;;;;4947822;28;20028;-73
2021/08/31 15:26:33;;;;;;;11.18;4.25;;;21.60;99.90;;;;;;4950519;29;20034;-71
2021/08/31 15:28:59;;;;;;;9.20;4.10;;;21.60;99.90;;;;;;4938866;28;20027;-74
2021/08/31 15:31:26;;;;;;;13.50;4.35;;;21.50;99.90;;;;;;4941342;28;20566;-73
2021/08/31 15:33:54;;;;;;;14.73;4.95;;;21.50;99.90;;;;;;4952079;28;20063;-77
2021/08/31 15:36:20;;;;;;;9.68;4.63;;;21.40;99.90;;;;;;4950797;28;20023;-74
2021/08/31 15:38:46;;;;;;;18.08;5.15;;;21.30;99.90;;;;;;4936594;29;20028;-75
2021/08/31 15:41:11;;;;;;;12.15;4.10;;;21.30;99.90;;;;;;4937446;29;20031;-72
2021/08/31 15:43:37;;;;;;;11.02;4.85;;;21.30;99.90;;;;;;4950633;29;20098;-74
2021/08/31 15:46:02;;;;;;;9.73;3.97;;;21.30;99.90;;;;;;4943828;29;20027;-73
2021/08/31 15:48:28;;;;;;;8.23;4.13;;;21.30;99.90;;;;;;4950853;28;20104;-72
2021/08/31 15:50:53;;;;;;;10.02;4.13;;;21.20;99.90;;;;;;4937644;29;20051;-70
2021/08/31 15:53:19;;;;;;;15.45;5.13;;;21.20;99.90;;;;;;4951094;29;20037;-70
2021/08/31 15:55:46;;;;;;;10.88;3.92;;;21.20;99.90;;;;;;4952066;29;20069;-73
2021/08/31 15:58:11;;;;;;;10.40;4.95;;;21.20;99.90;;;;;;4952649;29;20027;-70
2021/08/31 16:00:37;;;;;;;13.52;3.83;;;21.10;99.90;;;;;;4950594;29;20031;-74
2021/08/31 16:03:04;;;;;;;9.98;4.10;;;21.20;99.90;;;;;;4952205;29;20043;-70
2021/08/31 16:05:30;;;;;;;8.65;4.10;;;21.20;99.90;;;;;;4953769;28;20031;-70
2021/08/31 16:07:55;;;;;;;10.60;4.32;;;21.20;99.90;;;;;;4950911;28;20025;-68
2021/08/31 16:10:21;;;;;;;7.35;3.40;;;21.20;99.90;;;;;;4933088;29;20403;-73
2021/08/31 16:12:47;;;;;;;10.85;3.92;;;21.10;99.90;;;;;;4938258;29;20031;-69
2021/08/31 16:15:13;;;;;;;8.43;4.18;;;21.10;99.90;;;;;;4952975;28;20038;-69
2021/08/31 16:17:41;;;;;;;9.38;3.72;;;21.00;99.90;;;;;;4953177;28;20475;-70
2021/08/31 16:20:07;;;;;;;9.98;3.97;;;21.00;99.90;;;;;;4951800;29;20442;-71
2021/08/31 16:22:34;;;;;;;11.02;4.38;;;20.80;99.90;;;;;;4951780;28;20411;-69
2021/08/31 16:25:00;;;;;;;10.52;3.88;;;20.80;99.90;;;;;;4951951;29;20036;-71
2021/08/31 16:27:27;;;;;;;8.07;3.67;;;20.90;99.90;;;;;;4943991;29;20153;-72
2021/08/31 16:29:53;;;;;;;11.32;3.92;;;21.10;99.90;;;;;;4933158;29;20032;-72
2021/08/31 16:32:19;;;;;;;9.50;3.50;;;21.70;99.90;;;;;;4933910;29;20028;-73
2021/08/31 16:34:45;;;;;;;12.15;3.90;;;22.40;99.50;;;;;;4932836;29;20047;-69
2021/08/31 16:37:11;;;;;;;10.10;3.80;;;23.00;98.40;;;;;;4932651;29;20011;-69
2021/08/31 16:39:36;;;;;;;17.17;4.72;;;23.20;97.90;;;;;;4942844;29;20027;-70
2021/08/31 16:42:02;;;;;;;9.07;3.80;;;23.30;98.00;;;;;;4951845;28;20094;-69
2021/08/31 16:44:28;;;;;;;11.82;4.18;;;22.90;98.10;;;;;;4951396;28;20047;-73
2021/08/31 16:46:55;;;;;;;9.85;3.85;;;22.30;98.80;;;;;;4952507;28;20595;-71
2021/08/31 16:49:21;;;;;;;12.27;4.20;;;21.80;99.90;;;;;;4953242;28;20027;-70
2021/08/31 16:51:47;;;;;;;9.98;3.88;;;21.30;99.90;;;;;;4952292;28;20027;-72
2021/08/31 16:54:12;;;;;;;10.15;3.70;;;21.00;99.90;;;;;;4950943;28;20037;-72
2021/08/31 16:56:38;;;;;;;9.15;3.60;;;20.80;99.90;;;;;;4951189;29;20036;-70
2021/08/31 16:59:04;;;;;;;9.25;3.75;;;20.60;99.90;;;;;;4952201;28;20034;-70
2021/08/31 17:01:30;;;;;;;10.77;3.80;;;20.50;99.90;;;;;;4953356;28;20032;-70
2021/08/31 17:03:56;;;;;;;10.05;3.92;;;20.40;99.90;;;;;;4936973;28;20123;-72
2021/08/31 17:06:21;;;;;;;11.00;3.17;;;20.20;99.90;;;;;;4931449;29;20126;-72
2021/08/31 17:08:47;;;;;;;9.90;3.50;;;20.00;99.90;;;;;;4931970;29;20086;-69
2021/08/31 17:11:13;;;;;;;13.27;4.70;;;19.90;99.90;;;;;;4933128;29;20028;-69
2021/08/31 17:13:38;;;;;;;10.57;3.83;;;19.80;99.90;;;;;;4944631;29;20031;-70
2021/08/31 17:16:04;;;;;;;11.10;4.38;;;19.70;99.90;;;;;;4951026;29;20138;-70
2021/08/31 17:18:30;;;;;;;11.85;3.85;;;19.60;99.90;;;;;;4947703;28;20047;-72
2021/08/31 17:20:55;;;;;;;12.63;3.75;;;19.50;99.90;;;;;;4951978;28;20027;-71
2021/08/31 17:23:21;;;;;;;9.85;4.07;;;19.30;99.90;;;;;;4935248;28;20051;-72
2021/08/31 17:25:47;;;;;;;11.30;4.00;;;19.20;99.90;;;;;;4935479;29;20151;-72
2021/08/31 17:28:13;;;;;;;14.23;3.80;;;19.10;99.90;;;;;;4940449;28;20036;-72
2021/08/31 17:30:39;;;;;;;10.98;3.75;;;19.00;99.90;;;;;;4951465;29;20643;-71
2021/08/31 17:33:04;;;;;;;12.32;4.35;;;19.00;99.90;;;;;;4945795;28;20032;-71
2021/08/31 17:35:30;;;;;;;10.30;4.00;;;18.90;99.90;;;;;;4932045;29;20030;-73
2021/08/31 17:37:56;;;;;;;9.68;5.25;;;18.90;99.90;;;;;;4932633;29;20040;-71
2021/08/31 17:40:21;;;;;;;12.70;4.20;;;18.80;99.90;;;;;;4932644;29;20020;-71
2021/08/31 17:42:47;;;;;;;13.90;4.68;;;18.80;99.90;;;;;;4932175;29;20035;-71